createdAt,value
2019-03-01T00:01:54.778Z,-6.00
2019-03-01T00:06:23.542Z,-6.11
2019-03-01T00:11:11.742Z,-6.18
2019-03-01T00:16:05.952Z,-6.29
2019-03-01T00:20:36.239Z,-6.30
2019-03-01T00:25:04.541Z,-6.32
2019-03-01T00:29:35.057Z,-6.33
2019-03-01T00:34:13.222Z,-6.34
2019-03-01T00:38:45.143Z,-6.40
2019-03-01T00:43:14.338Z,-6.44
2019-03-01T00:47:17.074Z,-6.52
2019-03-01T00:51:19.622Z,-6.60
2019-03-01T00:55:21.965Z,-6.66
2019-03-01T00:59:24.468Z,-6.63
2019-03-01T01:03:26.813Z,-6.81
2019-03-01T01:07:29.267Z,-6.91
2019-03-01T01:11:31.613Z,-6.85
2019-03-01T01:15:34.038Z,-6.88
2019-03-01T01:19:36.382Z,-6.90
2019-03-01T01:23:38.821Z,-6.96
2019-03-01T01:27:41.174Z,-7.04
2019-03-01T01:31:43.602Z,-7.07
2019-03-01T01:35:46.306Z,-7.10
2019-03-01T01:39:48.758Z,-7.20
2019-03-01T01:43:51.442Z,-7.24
2019-03-01T01:47:55.388Z,-7.39
2019-03-01T01:51:57.747Z,-7.35
2019-03-01T01:56:00.171Z,-7.44
2019-03-01T02:00:02.490Z,-7.50
2019-03-01T02:04:06.570Z,-7.49
2019-03-01T02:08:09.003Z,-7.53
2019-03-01T02:12:11.387Z,-7.52
2019-03-01T02:16:13.715Z,-7.50
2019-03-01T02:20:16.159Z,-7.63
2019-03-01T02:24:18.490Z,-7.67
2019-03-01T02:28:21.012Z,-7.66
2019-03-01T02:32:47.222Z,-7.72
2019-03-01T02:36:49.924Z,-7.73
2019-03-01T02:40:52.289Z,-7.79
2019-03-01T02:44:54.753Z,-7.76
2019-03-01T02:49:00.468Z,-7.89
2019-03-01T02:53:02.854Z,-7.88
2019-03-01T02:57:05.205Z,-8.00
2019-03-01T03:01:08.001Z,-7.93
2019-03-01T03:05:10.587Z,-7.86
2019-03-01T03:09:13.907Z,-7.91
2019-03-01T03:13:16.241Z,-7.96
2019-03-01T03:17:18.802Z,-8.00
2019-03-01T03:21:21.182Z,-7.99
2019-03-01T03:25:23.675Z,-8.09
2019-03-01T03:29:25.997Z,-8.15
2019-03-01T03:33:28.622Z,-8.32
2019-03-01T03:37:31.151Z,-8.37
2019-03-01T03:41:33.668Z,-8.36
2019-03-01T03:45:36.188Z,-8.27
2019-03-01T03:49:39.268Z,-8.31
2019-03-01T03:53:41.676Z,-8.37
2019-03-01T03:57:44.471Z,-8.40
2019-03-01T04:01:47.045Z,-8.49
2019-03-01T04:05:49.919Z,-8.45
2019-03-01T04:09:52.622Z,-8.48
2019-03-01T04:13:55.382Z,-8.59
2019-03-01T04:17:58.118Z,-8.65
2019-03-01T04:22:00.875Z,-8.70
2019-03-01T04:26:03.448Z,-8.71
2019-03-01T04:30:07.452Z,-8.75
2019-03-01T04:34:10.157Z,-8.68
2019-03-01T04:38:12.694Z,-8.71
2019-03-01T04:42:15.327Z,-8.80
2019-03-01T04:46:18.111Z,-8.89
2019-03-01T04:50:20.906Z,-8.92
2019-03-01T04:54:23.682Z,-8.82
2019-03-01T04:58:28.424Z,-8.93
2019-03-01T05:02:31.421Z,-9.03
2019-03-01T05:06:34.006Z,-8.96
2019-03-01T05:10:36.792Z,-8.98
2019-03-01T05:14:39.406Z,-9.04
2019-03-01T05:18:42.121Z,-9.08
2019-03-01T05:22:44.706Z,-9.06
2019-03-01T05:26:47.501Z,-9.06
2019-03-01T05:30:50.055Z,-9.10
2019-03-01T05:34:52.901Z,-9.12
2019-03-01T05:38:55.524Z,-9.10
2019-03-01T05:42:58.288Z,-9.06
2019-03-01T05:47:01.005Z,-9.10
2019-03-01T05:51:05.806Z,-9.07
2019-03-01T05:55:08.322Z,-9.03
2019-03-01T05:59:15.255Z,-8.97
2019-03-01T06:03:56.211Z,-8.90
2019-03-01T06:08:48.342Z,-8.83
2019-03-01T06:13:30.696Z,-8.71
2019-03-01T06:18:12.611Z,-8.61
2019-03-01T06:22:46.012Z,-8.53
2019-03-01T06:27:20.661Z,-8.40
2019-03-01T06:31:46.473Z,-8.36
2019-03-01T06:36:19.610Z,-8.27
2019-03-01T06:41:23.606Z,-8.19
2019-03-01T06:46:16.072Z,-8.22
2019-03-01T06:50:23.280Z,-8.03
2019-03-01T06:54:26.163Z,-7.89
2019-03-01T06:58:40.870Z,-7.87
2019-03-01T07:02:46.770Z,-7.79
2019-03-01T07:06:49.555Z,-7.80
2019-03-01T07:10:53.314Z,-7.72
2019-03-01T07:14:55.815Z,-7.63
2019-03-01T07:18:58.531Z,-7.48
2019-03-01T07:23:01.270Z,-7.46
2019-03-01T07:27:04.055Z,-7.42
2019-03-01T07:31:07.157Z,-7.29
2019-03-01T07:35:10.321Z,-7.21
2019-03-01T07:39:12.694Z,-7.17
2019-03-01T07:43:15.138Z,-7.01
2019-03-01T07:47:17.495Z,-6.95
2019-03-01T07:51:19.885Z,-6.86
2019-03-01T07:55:24.957Z,-6.80
2019-03-01T07:59:26.570Z,-6.62
2019-03-01T08:03:28.970Z,-6.65
2019-03-01T08:07:31.420Z,-6.65
2019-03-01T08:11:34.073Z,-6.59
2019-03-01T08:15:36.895Z,-6.51
2019-03-01T08:19:39.475Z,-6.42
2019-03-01T08:23:42.110Z,-6.33
2019-03-01T08:27:46.291Z,-6.26
2019-03-01T08:31:52.736Z,-6.18
2019-03-01T08:35:53.740Z,-6.16
2019-03-01T08:39:56.330Z,-5.96
2019-03-01T08:43:59.112Z,-5.83
2019-03-01T08:48:01.895Z,-5.88
2019-03-01T08:52:04.615Z,-5.71
2019-03-01T08:56:10.956Z,-5.55
2019-03-01T09:00:27.030Z,-5.53
2019-03-01T09:04:28.629Z,-5.53
2019-03-01T09:08:30.965Z,-5.41
2019-03-01T09:12:33.407Z,-5.37
2019-03-01T09:16:35.874Z,-5.17
2019-03-01T09:20:38.691Z,-5.03
2019-03-01T09:24:41.159Z,-5.02
2019-03-01T09:28:43.586Z,-4.77
2019-03-01T09:32:46.010Z,-4.75
2019-03-01T09:36:54.733Z,-4.62
2019-03-01T09:40:57.380Z,-4.77
2019-03-01T09:45:00.372Z,-4.62
2019-03-01T09:49:04.362Z,-4.52
2019-03-01T09:53:08.175Z,-4.49
2019-03-01T09:57:12.411Z,-4.27
2019-03-01T10:01:17.155Z,-4.37
2019-03-01T10:05:20.790Z,-4.35
2019-03-01T10:09:23.655Z,-4.27
2019-03-01T10:13:26.054Z,-4.08
2019-03-01T10:17:28.528Z,-4.13
2019-03-01T10:21:30.858Z,-3.92
2019-03-01T10:25:33.294Z,-3.95
2019-03-01T10:29:35.634Z,-3.75
2019-03-01T10:33:38.295Z,-3.98
2019-03-01T10:37:40.694Z,-3.77
2019-03-01T10:41:43.104Z,-3.60
2019-03-01T10:45:45.596Z,-3.60
2019-03-01T10:49:48.061Z,-3.55
2019-03-01T10:53:50.475Z,-3.46
2019-03-01T10:57:52.873Z,-3.49
2019-03-01T11:01:55.268Z,-3.42
2019-03-01T11:05:57.729Z,-3.33
2019-03-01T11:10:00.445Z,-3.32
2019-03-01T11:14:02.969Z,-3.34
2019-03-01T11:18:05.709Z,-3.06
2019-03-01T11:22:08.296Z,-3.07
2019-03-01T11:26:10.643Z,-3.16
2019-03-01T11:30:18.999Z,-3.08
2019-03-01T11:34:21.558Z,-2.71
2019-03-01T11:38:24.078Z,-2.70
2019-03-01T11:42:26.589Z,-2.68
2019-03-01T11:46:29.368Z,-2.93
2019-03-01T11:50:31.810Z,-3.08
2019-03-01T11:54:34.203Z,-3.16
2019-03-01T11:58:36.528Z,-3.03
2019-03-01T12:02:39.027Z,-3.02
2019-03-01T12:06:41.494Z,-2.86
2019-03-01T12:10:44.916Z,-2.92
2019-03-01T12:14:47.467Z,-2.93
2019-03-01T12:18:49.878Z,-2.92
2019-03-01T12:22:52.196Z,-2.90
2019-03-01T12:26:54.597Z,-2.81
2019-03-01T12:30:57.138Z,-2.64
2019-03-01T12:34:59.591Z,-2.82
2019-03-01T12:39:01.966Z,-2.69
2019-03-01T12:43:06.033Z,-2.63
2019-03-01T12:47:08.391Z,-2.50
2019-03-01T12:51:10.837Z,-2.59
2019-03-01T12:55:15.926Z,-2.58
2019-03-01T12:59:18.411Z,-2.61
2019-03-01T13:03:20.822Z,-2.70
2019-03-01T13:07:23.187Z,-2.71
2019-03-01T13:11:25.567Z,-2.69
2019-03-01T13:15:28.251Z,-2.56
2019-03-01T13:19:31.316Z,-2.74
2019-03-01T13:23:33.801Z,-2.63
2019-03-01T13:27:36.112Z,-2.72
2019-03-01T13:31:38.858Z,-2.64
2019-03-01T13:35:41.487Z,-2.78
2019-03-01T13:39:45.069Z,-2.71
2019-03-01T13:43:48.138Z,-2.60
2019-03-01T13:47:50.570Z,-2.86
2019-03-01T13:51:54.084Z,-2.88
2019-03-01T13:56:00.208Z,-2.78
2019-03-01T14:00:00.698Z,-2.85
2019-03-01T14:04:04.214Z,-2.86
2019-03-01T14:08:09.346Z,-2.93
2019-03-01T14:12:13.641Z,-3.01
2019-03-01T14:16:17.097Z,-3.13
2019-03-01T14:20:21.315Z,-3.14
2019-03-01T14:24:25.951Z,-3.20
2019-03-01T14:28:28.366Z,-3.33
2019-03-01T14:32:30.868Z,-3.41
2019-03-01T14:36:33.362Z,-3.53
2019-03-01T14:40:35.811Z,-3.60
2019-03-01T14:44:38.226Z,-3.67
2019-03-01T14:48:42.979Z,-3.74
2019-03-01T14:52:44.732Z,-3.82
2019-03-01T14:56:57.416Z,-3.87
2019-03-01T15:01:26.627Z,-3.96
2019-03-01T15:05:28.857Z,-4.08
2019-03-01T15:09:31.716Z,-4.17
2019-03-01T15:13:34.961Z,-4.23
2019-03-01T15:17:38.279Z,-4.34
2019-03-01T15:21:40.872Z,-4.53
2019-03-01T15:25:47.516Z,-4.56
2019-03-01T15:29:48.417Z,-4.69
2019-03-01T15:33:51.068Z,-4.87
2019-03-01T15:37:53.887Z,-5.03
2019-03-01T15:41:56.670Z,-5.22
2019-03-01T15:45:59.593Z,-5.27
2019-03-01T15:50:02.488Z,-5.42
2019-03-01T15:54:06.786Z,-5.57
2019-03-01T15:58:09.462Z,-5.66
2019-03-01T16:02:12.281Z,-5.82
2019-03-01T16:06:18.820Z,-5.99
2019-03-01T16:10:19.479Z,-6.27
2019-03-01T16:14:24.202Z,-6.50
2019-03-01T16:18:26.621Z,-6.60
2019-03-01T16:22:30.307Z,-6.45
2019-03-01T16:26:36.400Z,-6.37
2019-03-01T16:30:40.640Z,-6.41
2019-03-01T16:34:43.722Z,-6.52
2019-03-01T16:38:48.714Z,-6.68
2019-03-01T16:42:54.392Z,-6.97
2019-03-01T16:46:56.356Z,-7.31
2019-03-01T16:50:58.931Z,-7.48
2019-03-01T16:55:01.983Z,-7.60
2019-03-01T16:59:07.262Z,-7.78
2019-03-01T17:03:10.291Z,-7.91
2019-03-01T17:07:13.037Z,-8.02
2019-03-01T17:11:15.913Z,-8.12
2019-03-01T17:15:20.218Z,-8.19
2019-03-01T17:19:27.439Z,-8.18
2019-03-01T17:23:28.637Z,-8.25
2019-03-01T17:27:31.549Z,-8.32
2019-03-01T17:31:34.652Z,-8.46
2019-03-01T17:35:40.919Z,-8.59
2019-03-01T17:39:41.830Z,-8.59
2019-03-01T17:43:44.338Z,-8.70
2019-03-01T17:47:47.002Z,-8.72
2019-03-01T17:51:49.748Z,-8.74
2019-03-01T17:55:52.547Z,-8.87
2019-03-01T17:59:55.784Z,-8.95
2019-03-01T18:04:01.808Z,-8.89
2019-03-01T18:08:04.987Z,-8.87
2019-03-01T18:12:07.832Z,-8.91
2019-03-01T18:16:10.543Z,-8.93
2019-03-01T18:20:13.284Z,-9.05
2019-03-01T18:24:16.069Z,-9.10
2019-03-01T18:28:18.644Z,-9.17
2019-03-01T18:32:21.195Z,-9.21
2019-03-01T18:36:23.825Z,-9.21
2019-03-01T18:40:26.533Z,-9.21
2019-03-01T18:44:29.015Z,-9.33
2019-03-01T18:48:33.572Z,-9.35
2019-03-01T18:52:36.044Z,-9.33
2019-03-01T18:56:38.792Z,-9.34
2019-03-01T19:00:42.847Z,-9.39
2019-03-01T19:04:45.488Z,-9.40
2019-03-01T19:08:48.275Z,-9.34
2019-03-01T19:12:50.971Z,-9.35
2019-03-01T19:16:54.155Z,-9.37
2019-03-01T19:20:57.158Z,-9.37
2019-03-01T19:24:59.895Z,-9.34
2019-03-01T19:29:03.624Z,-9.36
2019-03-01T19:33:06.443Z,-9.32
2019-03-01T19:37:10.236Z,-9.46
2019-03-01T19:41:13.448Z,-9.46
2019-03-01T19:45:17.240Z,-9.48
2019-03-01T19:49:19.906Z,-9.53
2019-03-01T19:53:25.480Z,-9.53
2019-03-01T19:57:26.897Z,-9.15
2019-03-01T20:01:29.549Z,-9.15
2019-03-01T20:05:33.191Z,-9.26
2019-03-01T20:09:36.635Z,-9.26
2019-03-01T20:13:41.913Z,-9.29
2019-03-01T20:17:44.960Z,-9.29
2019-03-01T20:21:47.466Z,-9.29
2019-03-01T20:25:51.037Z,-9.25
2019-03-01T20:29:54.412Z,-9.31
2019-03-01T20:33:58.573Z,-9.27
2019-03-01T20:38:04.403Z,-9.21
2019-03-01T20:42:11.559Z,-9.14
2019-03-01T20:46:18.195Z,-9.06
2019-03-01T20:50:20.951Z,-9.06
2019-03-01T20:54:25.715Z,-8.81
2019-03-01T20:58:28.154Z,-8.81
2019-03-01T21:02:32.193Z,-8.35
2019-03-01T21:06:37.318Z,-8.16
2019-03-01T21:10:39.344Z,-8.07
2019-03-01T21:14:41.985Z,-8.10
2019-03-01T21:18:44.614Z,-8.04
2019-03-01T21:22:47.482Z,-8.00
2019-03-01T21:26:51.200Z,-7.97
2019-03-01T21:30:55.697Z,-8.00
2019-03-01T21:34:59.234Z,-7.99
2019-03-01T21:39:01.988Z,-7.92
2019-03-01T21:43:06.453Z,-7.82
2019-03-01T21:47:12.193Z,-7.85
2019-03-01T21:51:14.749Z,-7.82
2019-03-01T21:55:17.960Z,-7.72
2019-03-01T21:59:20.774Z,-7.62
2019-03-01T22:03:24.754Z,-7.51
2019-03-01T22:07:29.152Z,-7.45
2019-03-01T22:11:31.949Z,-7.39
2019-03-01T22:15:34.530Z,-7.35
2019-03-01T22:19:37.499Z,-7.31
2019-03-01T22:23:40.095Z,-7.32
2019-03-01T22:27:44.139Z,-7.24
2019-03-01T22:31:47.420Z,-7.27
2019-03-01T22:35:51.146Z,-7.13
2019-03-01T22:39:54.034Z,-7.08
2019-03-01T22:43:58.267Z,-7.05
2019-03-01T22:48:01.473Z,-7.00
2019-03-01T22:52:04.242Z,-6.96
2019-03-01T22:56:08.642Z,-6.84
2019-03-01T23:00:24.175Z,-6.79
2019-03-01T23:04:29.436Z,-6.62
2019-03-01T23:08:35.468Z,-6.48
2019-03-01T23:12:36.991Z,-6.40
2019-03-01T23:16:39.610Z,-6.32
2019-03-01T23:20:42.471Z,-6.24
2019-03-01T23:24:45.320Z,-6.13
2019-03-01T23:28:47.970Z,-6.09
2019-03-01T23:32:52.644Z,-6.00
2019-03-01T23:36:54.878Z,-5.95
2019-03-01T23:40:59.444Z,-5.92
2019-03-01T23:45:03.430Z,-5.92
2019-03-01T23:49:06.986Z,-5.88
2019-03-01T23:53:09.846Z,-5.80
2019-03-01T23:57:13.419Z,-5.69
